Terminal Aerodrome Forecast
Issued by NWS

Home | Current Version | Previous Version | Graphics & Text | Print | Product List | Glossary On
Versions: 1 2 3 4 5 6 7 8 9 10 11 12 13 14 15 16 17 18 19 20 21 22 23
000
FTUS43 KBIS 231120
TAFDIK
TAF
KDIK 231120Z 2312/2412 09015G24KT P6SM OVC004
     FM231500 09016G25KT P6SM OVC008
     FM231700 10016G24KT P6SM OVC010
     FM232200 10015G23KT P6SM OVC030
     FM240700 08011KT P6SM OVC003=

USA.gov is the U.S. government's official web portal to all federal, state and local government web resources and services.